Terminal Aerodrome Forecast
Issued by NWS

Home | Current Version | Previous Version | Graphics & Text | Print | Product List | Glossary On
Versions: 1 2 3 4 5 6 7 8 9 10 11 12 13 14 15 16 17 18 19 20 21
407
FTUS43 KFGF 041727
TAFBJI
TAF
KBJI 041727Z 0418/0518 19009KT 4SM -SN OVC008
      TEMPO 0418/0422 2SM -SN
     FM050600 22005KT P6SM BKN003
     FM051100 16005KT P6SM BKN008
     FM051600 12008KT P6SM BKN030=

USA.gov is the U.S. government's official web portal to all federal, state and local government web resources and services.